sensor_id;sensor_type;location;lat;lon;timestamp;pressure;altitude;pressure_sealevel;temperature;humidity
59009;BME280;44794;42.652;23.318;2023-04-20T00:00:38;94185.47;;;9.91;72.48
59009;BME280;44794;42.652;23.318;2023-04-20T00:03:04;94187.13;;;9.92;72.20
59009;BME280;44794;42.652;23.318;2023-04-20T00:05:29;94184.75;;;9.89;72.83
59009;BME280;44794;42.652;23.318;2023-04-20T00:07:57;94188.16;;;9.89;72.92
59009;BME280;44794;42.652;23.318;2023-04-20T00:10:23;94184.63;;;9.90;72.73
59009;BME280;44794;42.652;23.318;2023-04-20T00:12:48;94179.72;;;9.87;73.07
59009;BME280;44794;42.652;23.318;2023-04-20T00:15:14;94184.63;;;9.90;73.01
59009;BME280;44794;42.652;23.318;2023-04-20T00:17:39;94175.59;;;9.85;73.29
59009;BME280;44794;42.652;23.318;2023-04-20T00:20:05;94174.88;;;9.83;73.79
59009;BME280;44794;42.652;23.318;2023-04-20T00:22:33;94170.50;;;9.83;73.84
59009;BME280;44794;42.652;23.318;2023-04-20T00:25:00;94167.91;;;9.83;73.84
59009;BME280;44794;42.652;23.318;2023-04-20T00:27:26;94162.72;;;9.83;74.00
59009;BME280;44794;42.652;23.318;2023-04-20T00:29:52;94162.38;;;9.77;74.25
59009;BME280;44794;42.652;23.318;2023-04-20T00:32:17;94162.75;;;9.72;74.41
59009;BME280;44794;42.652;23.318;2023-04-20T00:34:42;94161.81;;;9.73;74.56
59009;BME280;44794;42.652;23.318;2023-04-20T00:37:08;94162.88;;;9.71;74.43
59009;BME280;44794;42.652;23.318;2023-04-20T00:39:33;94162.03;;;9.81;73.71
59009;BME280;44794;42.652;23.318;2023-04-20T00:42:06;94171.44;;;9.82;73.34
59009;BME280;44794;42.652;23.318;2023-04-20T00:44:32;94171.09;;;9.87;73.22
59009;BME280;44794;42.652;23.318;2023-04-20T00:46:58;94162.13;;;9.91;73.41
59009;BME280;44794;42.652;23.318;2023-04-20T00:49:25;94161.66;;;9.86;73.71
59009;BME280;44794;42.652;23.318;2023-04-20T00:51:52;94147.50;;;9.90;73.80
59009;BME280;44794;42.652;23.318;2023-04-20T00:54:18;94160.97;;;9.84;73.87
59009;BME280;44794;42.652;23.318;2023-04-20T00:56:43;94154.25;;;9.81;74.52
59009;BME280;44794;42.652;23.318;2023-04-20T00:59:09;94165.66;;;9.79;74.77
59009;BME280;44794;42.652;23.318;2023-04-20T01:01:35;94162.63;;;9.74;75.31
59009;BME280;44794;42.652;23.318;2023-04-20T01:04:00;94159.56;;;9.69;76.20
59009;BME280;44794;42.652;23.318;2023-04-20T01:06:25;94151.09;;;9.56;77.37
59009;BME280;44794;42.652;23.318;2023-04-20T01:08:52;94150.50;;;9.53;77.60
59009;BME280;44794;42.652;23.318;2023-04-20T01:11:17;94143.88;;;9.49;78.50
59009;BME280;44794;42.652;23.318;2023-04-20T01:13:43;94150.47;;;9.42;79.37
59009;BME280;44794;42.652;23.318;2023-04-20T01:16:09;94157.91;;;9.46;79.55
59009;BME280;44794;42.652;23.318;2023-04-20T01:18:46;94157.31;;;9.32;80.33
59009;BME280;44794;42.652;23.318;2023-04-20T01:21:13;94158.59;;;9.37;80.45
59009;BME280;44794;42.652;23.318;2023-04-20T01:23:40;94150.47;;;9.31;80.94
59009;BME280;44794;42.652;23.318;2023-04-20T01:26:10;94151.88;;;9.24;81.57
59009;BME280;44794;42.652;23.318;2023-04-20T01:28:35;94151.03;;;9.12;82.22
59009;BME280;44794;42.652;23.318;2023-04-20T01:31:02;94142.88;;;9.06;82.73
59009;BME280;44794;42.652;23.318;2023-04-20T01:33:28;94141.25;;;9.05;82.82
59009;BME280;44794;42.652;23.318;2023-04-20T01:35:54;94145.59;;;9.04;83.21
59009;BME280;44794;42.652;23.318;2023-04-20T01:38:21;94151.25;;;8.98;83.40
59009;BME280;44794;42.652;23.318;2023-04-20T01:40:47;94151.97;;;9.00;83.84
59009;BME280;44794;42.652;23.318;2023-04-20T01:43:13;94135.38;;;9.03;83.46
59009;BME280;44794;42.652;23.318;2023-04-20T01:45:38;94131.13;;;9.02;83.41
59009;BME280;44794;42.652;23.318;2023-04-20T01:48:04;94138.28;;;8.98;83.81
59009;BME280;44794;42.652;23.318;2023-04-20T01:50:29;94130.19;;;9.03;83.84
59009;BME280;44794;42.652;23.318;2023-04-20T01:52:55;94131.59;;;9.07;83.61
59009;BME280;44794;42.652;23.318;2023-04-20T01:55:20;94126.19;;;9.10;83.46
59009;BME280;44794;42.652;23.318;2023-04-20T01:57:46;94130.66;;;9.08;83.32
59009;BME280;44794;42.652;23.318;2023-04-20T02:00:12;94127.94;;;9.09;83.40
59009;BME280;44794;42.652;23.318;2023-04-20T02:02:37;94121.94;;;9.09;83.59
59009;BME280;44794;42.652;23.318;2023-04-20T02:05:03;94122.16;;;9.06;83.66
59009;BME280;44794;42.652;23.318;2023-04-20T02:07:29;94123.13;;;9.05;83.72
59009;BME280;44794;42.652;23.318;2023-04-20T02:09:55;94122.19;;;9.17;83.69
59009;BME280;44794;42.652;23.318;2023-04-20T02:12:20;94118.41;;;9.10;83.64
59009;BME280;44794;42.652;23.318;2023-04-20T02:14:45;94118.03;;;9.03;83.76
59009;BME280;44794;42.652;23.318;2023-04-20T02:17:11;94115.78;;;8.99;83.39
59009;BME280;44794;42.652;23.318;2023-04-20T02:19:37;94110.88;;;8.96;83.27
59009;BME280;44794;42.652;23.318;2023-04-20T02:22:02;94117.34;;;9.01;82.40
59009;BME280;44794;42.652;23.318;2023-04-20T02:24:28;94121.56;;;9.02;82.69
59009;BME280;44794;42.652;23.318;2023-04-20T02:26:53;94123.81;;;9.07;82.66
59009;BME280;44794;42.652;23.318;2023-04-20T02:29:18;94129.00;;;9.07;82.29
59009;BME280;44794;42.652;23.318;2023-04-20T02:31:44;94126.19;;;9.10;82.01
59009;BME280;44794;42.652;23.318;2023-04-20T02:34:09;94127.59;;;9.14;82.00
59009;BME280;44794;42.652;23.318;2023-04-20T02:36:35;94121.72;;;9.12;82.38
59009;BME280;44794;42.652;23.318;2023-04-20T02:39:01;94122.41;;;9.14;82.22
59009;BME280;44794;42.652;23.318;2023-04-20T02:41:26;94120.66;;;9.14;81.65
59009;BME280;44794;42.652;23.318;2023-04-20T02:43:52;94125.59;;;9.17;81.61
59009;BME280;44794;42.652;23.318;2023-04-20T02:46:17;94126.19;;;9.21;81.00
59009;BME280;44794;42.652;23.318;2023-04-20T02:48:43;94132.69;;;9.15;81.08
59009;BME280;44794;42.652;23.318;2023-04-20T02:51:08;94133.03;;;9.22;79.94
59009;BME280;44794;42.652;23.318;2023-04-20T02:53:34;94131.97;;;9.24;79.66
59009;BME280;44794;42.652;23.318;2023-04-20T02:55:59;94129.16;;;9.27;79.89
59009;BME280;44794;42.652;23.318;2023-04-20T02:58:25;94141.50;;;9.24;79.66
59009;BME280;44794;42.652;23.318;2023-04-20T03:00:50;94132.81;;;9.25;79.57
59009;BME280;44794;42.652;23.318;2023-04-20T03:03:16;94132.31;;;9.20;80.03
59009;BME280;44794;42.652;23.318;2023-04-20T03:05:44;94127.13;;;9.20;80.97
59009;BME280;44794;42.652;23.318;2023-04-20T03:08:09;94123.59;;;9.10;81.22
59009;BME280;44794;42.652;23.318;2023-04-20T03:10:34;94122.88;;;9.08;81.17
59009;BME280;44794;42.652;23.318;2023-04-20T03:13:00;94124.06;;;9.04;81.48
59009;BME280;44794;42.652;23.318;2023-04-20T03:15:25;94120.53;;;9.05;81.28
59009;BME280;44794;42.652;23.318;2023-04-20T03:17:51;94121.47;;;9.04;81.45
59009;BME280;44794;42.652;23.318;2023-04-20T03:20:16;94118.88;;;9.04;81.59
59009;BME280;44794;42.652;23.318;2023-04-20T03:22:42;94120.75;;;9.02;81.40
59009;BME280;44794;42.652;23.318;2023-04-20T03:25:07;94119.69;;;9.04;81.60
59009;BME280;44794;42.652;23.318;2023-04-20T03:27:33;94117.34;;;9.12;81.40
59009;BME280;44794;42.652;23.318;2023-04-20T03:29:58;94125.72;;;9.16;81.43
59009;BME280;44794;42.652;23.318;2023-04-20T03:32:25;94129.72;;;9.20;81.17
59009;BME280;44794;42.652;23.318;2023-04-20T03:34:51;94134.31;;;9.16;81.34
59009;BME280;44794;42.652;23.318;2023-04-20T03:37:17;94129.25;;;9.15;81.48
59009;BME280;44794;42.652;23.318;2023-04-20T03:39:42;94131.03;;;9.14;81.40
59009;BME280;44794;42.652;23.318;2023-04-20T03:42:08;94126.06;;;9.11;81.29
59009;BME280;44794;42.652;23.318;2023-04-20T03:44:33;94134.22;;;9.18;80.49
59009;BME280;44794;42.652;23.318;2023-04-20T03:46:59;94135.88;;;9.19;80.60
59009;BME280;44794;42.652;23.318;2023-04-20T03:49:24;94129.03;;;9.18;80.52
59009;BME280;44794;42.652;23.318;2023-04-20T03:51:50;94137.16;;;9.24;80.55
59009;BME280;44794;42.652;23.318;2023-04-20T03:54:16;94135.63;;;9.22;80.41
59009;BME280;44794;42.652;23.318;2023-04-20T03:56:41;94130.69;;;9.30;80.25
59009;BME280;44794;42.652;23.318;2023-04-20T03:59:08;94138.13;;;9.34;79.64
59009;BME280;44794;42.652;23.318;2023-04-20T04:01:35;94142.81;;;9.40;78.43
59009;BME280;44794;42.652;23.318;2023-04-20T04:04:03;94138.00;;;9.47;77.67
59009;BME280;44794;42.652;23.318;2023-04-20T04:06:29;94139.63;;;9.48;77.55
59009;BME280;44794;42.652;23.318;2023-04-20T04:08:54;94140.59;;;9.58;77.50
59009;BME280;44794;42.652;23.318;2023-04-20T04:11:20;94150.72;;;9.61;77.72
59009;BME280;44794;42.652;23.318;2023-04-20T04:13:45;94147.16;;;9.62;77.52
59009;BME280;44794;42.652;23.318;2023-04-20T04:16:10;94148.00;;;9.73;77.16
59009;BME280;44794;42.652;23.318;2023-04-20T04:18:36;94150.47;;;9.64;77.12
59009;BME280;44794;42.652;23.318;2023-04-20T04:21:02;94154.94;;;9.62;77.10
59009;BME280;44794;42.652;23.318;2023-04-20T04:23:27;94156.25;;;9.67;77.30
59009;BME280;44794;42.652;23.318;2023-04-20T04:25:53;94150.00;;;9.59;77.55
59009;BME280;44794;42.652;23.318;2023-04-20T04:28:18;94151.91;;;9.68;77.88
59009;BME280;44794;42.652;23.318;2023-04-20T04:30:45;94151.19;;;9.66;77.19
59009;BME280;44794;42.652;23.318;2023-04-20T04:33:11;94152.59;;;9.69;77.07
59009;BME280;44794;42.652;23.318;2023-04-20T04:35:39;94148.59;;;9.66;76.80
59009;BME280;44794;42.652;23.318;2023-04-20T04:38:05;94152.84;;;9.67;77.45
59009;BME280;44794;42.652;23.318;2023-04-20T04:40:31;94152.94;;;9.65;77.58
59009;BME280;44794;42.652;23.318;2023-04-20T04:42:57;94159.56;;;9.69;77.76
59009;BME280;44794;42.652;23.318;2023-04-20T04:45:24;94159.22;;;9.73;77.88
59009;BME280;44794;42.652;23.318;2023-04-20T04:47:49;94172.66;;;9.68;77.61
59009;BME280;44794;42.652;23.318;2023-04-20T04:50:17;94170.25;;;9.75;77.53
59009;BME280;44794;42.652;23.318;2023-04-20T04:52:43;94171.09;;;9.76;77.35
59009;BME280;44794;42.652;23.318;2023-04-20T04:55:09;94175.69;;;9.72;77.56
59009;BME280;44794;42.652;23.318;2023-04-20T04:57:34;94176.88;;;9.79;77.63
59009;BME280;44794;42.652;23.318;2023-04-20T05:00:00;94179.22;;;9.71;77.60
59009;BME280;44794;42.652;23.318;2023-04-20T05:02:26;94171.81;;;9.67;77.61
59009;BME280;44794;42.652;23.318;2023-04-20T05:04:51;94180.19;;;9.60;77.54
59009;BME280;44794;42.652;23.318;2023-04-20T05:07:16;94183.25;;;9.65;77.53
59009;BME280;44794;42.652;23.318;2023-04-20T05:09:42;94179.81;;;9.75;77.78
59009;BME280;44794;42.652;23.318;2023-04-20T05:12:07;94183.38;;;9.85;77.56
59009;BME280;44794;42.652;23.318;2023-04-20T05:14:33;94179.22;;;9.82;77.46
59009;BME280;44794;42.652;23.318;2023-04-20T05:17:00;94175.00;;;9.81;77.15
59009;BME280;44794;42.652;23.318;2023-04-20T05:19:26;94172.28;;;9.83;76.65
59009;BME280;44794;42.652;23.318;2023-04-20T05:21:51;94176.28;;;9.87;76.95
59009;BME280;44794;42.652;23.318;2023-04-20T05:24:17;94178.97;;;9.96;77.04
59009;BME280;44794;42.652;23.318;2023-04-20T05:26:43;94183.34;;;9.96;77.19
59009;BME280;44794;42.652;23.318;2023-04-20T05:29:09;94185.22;;;9.94;76.96
59009;BME280;44794;42.652;23.318;2023-04-20T05:31:34;94183.56;;;9.93;76.86
59009;BME280;44794;42.652;23.318;2023-04-20T05:34:00;94190.41;;;9.94;76.77
59009;BME280;44794;42.652;23.318;2023-04-20T05:36:27;94187.38;;;10.00;77.14
59009;BME280;44794;42.652;23.318;2023-04-20T05:38:53;94187.94;;;10.03;77.23
59009;BME280;44794;42.652;23.318;2023-04-20T05:41:19;94193.03;;;10.05;77.02
59009;BME280;44794;42.652;23.318;2023-04-20T05:43:44;94190.56;;;10.03;77.09
59009;BME280;44794;42.652;23.318;2023-04-20T05:46:09;94190.94;;;9.99;78.03
59009;BME280;44794;42.652;23.318;2023-04-20T05:48:35;94184.91;;;10.09;78.91
59009;BME280;44794;42.652;23.318;2023-04-20T05:51:00;94192.47;;;10.01;79.44
59009;BME280;44794;42.652;23.318;2023-04-20T05:53:26;94189.59;;;9.93;79.01
59009;BME280;44794;42.652;23.318;2023-04-20T05:55:51;94187.94;;;9.92;79.46
59009;BME280;44794;42.652;23.318;2023-04-20T05:58:17;94187.81;;;9.94;79.56
59009;BME280;44794;42.652;23.318;2023-04-20T06:00:42;94181.81;;;9.93;79.12
59009;BME280;44794;42.652;23.318;2023-04-20T06:03:08;94187.72;;;9.95;79.58
59009;BME280;44794;42.652;23.318;2023-04-20T06:05:33;94181.59;;;10.07;79.41
59009;BME280;44794;42.652;23.318;2023-04-20T06:07:59;94185.72;;;10.10;78.91
59009;BME280;44794;42.652;23.318;2023-04-20T06:10:25;94180.41;;;10.22;79.55
59009;BME280;44794;42.652;23.318;2023-04-20T06:12:50;94179.34;;;10.25;80.22
59009;BME280;44794;42.652;23.318;2023-04-20T06:15:15;94188.66;;;10.05;81.09
59009;BME280;44794;42.652;23.318;2023-04-20T06:17:41;94183.47;;;10.05;82.36
59009;BME280;44794;42.652;23.318;2023-04-20T06:20:08;94182.41;;;10.08;83.29
59009;BME280;44794;42.652;23.318;2023-04-20T06:22:34;94180.41;;;10.11;83.50
59009;BME280;44794;42.652;23.318;2023-04-20T06:25:00;94183.84;;;10.12;83.03
59009;BME280;44794;42.652;23.318;2023-04-20T06:27:25;94191.38;;;10.26;82.26
59009;BME280;44794;42.652;23.318;2023-04-20T06:29:51;94193.88;;;10.16;81.28
59009;BME280;44794;42.652;23.318;2023-04-20T06:32:16;94197.63;;;10.12;82.09
59009;BME280;44794;42.652;23.318;2023-04-20T06:34:42;94190.53;;;10.25;81.85
59009;BME280;44794;42.652;23.318;2023-04-20T06:37:08;94191.59;;;10.23;80.79
59009;BME280;44794;42.652;23.318;2023-04-20T06:39:33;94192.91;;;10.17;80.51
59009;BME280;44794;42.652;23.318;2023-04-20T06:42:00;94194.31;;;10.21;81.18
59009;BME280;44794;42.652;23.318;2023-04-20T06:44:26;94194.66;;;10.28;81.04
59009;BME280;44794;42.652;23.318;2023-04-20T06:46:52;94204.69;;;10.21;80.35
59009;BME280;44794;42.652;23.318;2023-04-20T06:49:17;94203.75;;;10.22;79.93
59009;BME280;44794;42.652;23.318;2023-04-20T06:51:43;94208.91;;;10.33;80.01
59009;BME280;44794;42.652;23.318;2023-04-20T06:54:08;94205.63;;;10.31;78.96
59009;BME280;44794;42.652;23.318;2023-04-20T06:56:34;94214.09;;;10.33;79.34
59009;BME280;44794;42.652;23.318;2023-04-20T06:58:59;94213.78;;;10.27;79.47
59009;BME280;44794;42.652;23.318;2023-04-20T07:01:25;94219.91;;;10.26;80.62
59009;BME280;44794;42.652;23.318;2023-04-20T07:03:50;94209.09;;;9.99;82.44
59009;BME280;44794;42.652;23.318;2023-04-20T07:06:16;94207.75;;;9.71;85.25
59009;BME280;44794;42.652;23.318;2023-04-20T07:08:42;94209.53;;;9.71;87.24
59009;BME280;44794;42.652;23.318;2023-04-20T07:11:07;94206.81;;;9.83;88.46
59009;BME280;44794;42.652;23.318;2023-04-20T07:13:33;94205.66;;;9.98;88.00
59009;BME280;44794;42.652;23.318;2023-04-20T07:15:59;94210.94;;;10.08;86.73
59009;BME280;44794;42.652;23.318;2023-04-20T07:18:24;94206.94;;;10.26;85.16
59009;BME280;44794;42.652;23.318;2023-04-20T07:20:51;94219.16;;;10.46;84.03
59009;BME280;44794;42.652;23.318;2023-04-20T07:23:16;94221.06;;;10.75;84.02
59009;BME280;44794;42.652;23.318;2023-04-20T07:25:41;94220.28;;;10.95;81.09
59009;BME280;44794;42.652;23.318;2023-04-20T07:28:07;94224.78;;;11.24;79.48
59009;BME280;44794;42.652;23.318;2023-04-20T07:30:32;94235.31;;;11.43;77.78
59009;BME280;44794;42.652;23.318;2023-04-20T07:32:58;94224.63;;;11.57;74.80
59009;BME280;44794;42.652;23.318;2023-04-20T07:35:23;94228.44;;;11.83;75.02
59009;BME280;44794;42.652;23.318;2023-04-20T07:37:49;94229.19;;;11.94;71.87
59009;BME280;44794;42.652;23.318;2023-04-20T07:40:14;94224.53;;;11.88;71.07
59009;BME280;44794;42.652;23.318;2023-04-20T07:42:41;94228.34;;;11.84;71.12
59009;BME280;44794;42.652;23.318;2023-04-20T07:45:08;94228.25;;;11.95;70.24
59009;BME280;44794;42.652;23.318;2023-04-20T07:47:35;94231.09;;;12.22;69.63
59009;BME280;44794;42.652;23.318;2023-04-20T07:50:00;94233.81;;;12.50;69.00
59009;BME280;44794;42.652;23.318;2023-04-20T07:52:26;94237.22;;;12.99;67.09
59009;BME280;44794;42.652;23.318;2023-04-20T07:54:51;94235.19;;;13.41;64.07
59009;BME280;44794;42.652;23.318;2023-04-20T07:57:24;94245.44;;;13.61;62.67
59009;BME280;44794;42.652;23.318;2023-04-20T07:59:50;94239.00;;;13.46;63.49
59009;BME280;44794;42.652;23.318;2023-04-20T08:02:17;94224.72;;;13.59;62.13
59009;BME280;44794;42.652;23.318;2023-04-20T08:04:43;94238.38;;;13.90;60.91
59009;BME280;44794;42.652;23.318;2023-04-20T08:07:11;94240.81;;;14.01;60.13
59009;BME280;44794;42.652;23.318;2023-04-20T08:09:37;94236.56;;;14.00;60.26
59009;BME280;44794;42.652;23.318;2023-04-20T08:12:03;94240.03;;;13.91;59.60
59009;BME280;44794;42.652;23.318;2023-04-20T08:14:28;94251.59;;;13.69;60.05
59009;BME280;44794;42.652;23.318;2023-04-20T08:16:54;94239.53;;;13.68;61.33
59009;BME280;44794;42.652;23.318;2023-04-20T08:19:19;94236.44;;;14.01;59.18
59009;BME280;44794;42.652;23.318;2023-04-20T08:21:45;94242.38;;;14.39;59.84
59009;BME280;44794;42.652;23.318;2023-04-20T08:24:10;94235.06;;;13.88;60.32
59009;BME280;44794;42.652;23.318;2023-04-20T08:26:37;94236.16;;;13.95;60.42
59009;BME280;44794;42.652;23.318;2023-04-20T08:29:03;94236.25;;;13.57;60.90
59009;BME280;44794;42.652;23.318;2023-04-20T08:31:29;94238.03;;;13.47;61.83
59009;BME280;44794;42.652;23.318;2023-04-20T08:33:55;94226.38;;;13.51;62.45
59009;BME280;44794;42.652;23.318;2023-04-20T08:36:20;94244.50;;;13.43;62.24
59009;BME280;44794;42.652;23.318;2023-04-20T08:39:10;94244.47;;;13.62;61.97
59009;BME280;44794;42.652;23.318;2023-04-20T08:41:35;94241.44;;;13.66;61.84
59009;BME280;44794;42.652;23.318;2023-04-20T08:44:01;94241.88;;;13.05;62.40
59009;BME280;44794;42.652;23.318;2023-04-20T08:46:27;94237.84;;;12.82;64.16
59009;BME280;44794;42.652;23.318;2023-04-20T08:48:53;94244.22;;;13.18;63.82
59009;BME280;44794;42.652;23.318;2023-04-20T08:51:20;94245.59;;;13.41;62.04
59009;BME280;44794;42.652;23.318;2023-04-20T08:53:45;94248.13;;;12.74;64.23
59009;BME280;44794;42.652;23.318;2023-04-20T08:56:11;94246.34;;;12.84;64.92
59009;BME280;44794;42.652;23.318;2023-04-20T08:58:36;94238.47;;;12.95;64.54
59009;BME280;44794;42.652;23.318;2023-04-20T09:01:10;94249.44;;;12.99;64.18
59009;BME280;44794;42.652;23.318;2023-04-20T09:03:37;94240.31;;;12.26;66.77
59009;BME280;44794;42.652;23.318;2023-04-20T09:06:14;94252.59;;;12.14;68.38
59009;BME280;44794;42.652;23.318;2023-04-20T09:08:41;94245.59;;;12.15;68.70
59009;BME280;44794;42.652;23.318;2023-04-20T09:11:16;94243.47;;;12.29;68.07
59009;BME280;44794;42.652;23.318;2023-04-20T09:14:03;94249.16;;;12.53;67.82
59009;BME280;44794;42.652;23.318;2023-04-20T09:16:31;94248.13;;;12.74;67.16
59009;BME280;44794;42.652;23.318;2023-04-20T09:18:57;94246.00;;;12.98;65.56
59009;BME280;44794;42.652;23.318;2023-04-20T09:21:24;94254.38;;;13.40;63.77
59009;BME280;44794;42.652;23.318;2023-04-20T09:26:22;94244.66;;;14.16;61.11
59009;BME280;44794;42.652;23.318;2023-04-20T09:28:48;94252.81;;;14.39;59.75
59009;BME280;44794;42.652;23.318;2023-04-20T09:31:20;94244.28;;;14.91;58.38
59009;BME280;44794;42.652;23.318;2023-04-20T09:34:00;94248.16;;;15.49;57.20
59009;BME280;44794;42.652;23.318;2023-04-20T09:36:40;94241.53;;;15.37;54.80
59009;BME280;44794;42.652;23.318;2023-04-20T09:39:10;94240.53;;;15.20;54.90
59009;BME280;44794;42.652;23.318;2023-04-20T09:41:38;94239.75;;;15.10;55.48
59009;BME280;44794;42.652;23.318;2023-04-20T09:44:04;94238.75;;;14.94;55.81
59009;BME280;44794;42.652;23.318;2023-04-20T09:46:32;94243.06;;;15.12;56.63
59009;BME280;44794;42.652;23.318;2023-04-20T09:48:59;94239.13;;;15.26;55.78
59009;BME280;44794;42.652;23.318;2023-04-20T09:51:26;94236.78;;;15.58;54.51
59009;BME280;44794;42.652;23.318;2023-04-20T09:53:56;94235.88;;;15.84;54.39
59009;BME280;44794;42.652;23.318;2023-04-20T09:56:22;94235.88;;;16.09;53.83
59009;BME280;44794;42.652;23.318;2023-04-20T09:58:48;94237.38;;;16.37;53.49
59009;BME280;44794;42.652;23.318;2023-04-20T10:01:15;94226.97;;;16.28;52.26
59009;BME280;44794;42.652;23.318;2023-04-20T10:03:41;94231.56;;;16.59;52.02
59009;BME280;44794;42.652;23.318;2023-04-20T10:06:23;94224.28;;;16.12;51.76
59009;BME280;44794;42.652;23.318;2023-04-20T10:08:51;94219.97;;;16.28;51.95
59009;BME280;44794;42.652;23.318;2023-04-20T10:13:52;94222.50;;;16.46;50.58
59009;BME280;44794;42.652;23.318;2023-04-20T10:16:18;94222.66;;;15.93;51.84
59009;BME280;44794;42.652;23.318;2023-04-20T10:18:57;94215.63;;;15.51;53.10
59009;BME280;44794;42.652;23.318;2023-04-20T10:21:23;94218.06;;;14.83;54.92
59009;BME280;44794;42.652;23.318;2023-04-20T10:23:52;94211.84;;;15.28;54.66
59009;BME280;44794;42.652;23.318;2023-04-20T10:26:18;94215.09;;;15.90;53.05
59009;BME280;44794;42.652;23.318;2023-04-20T10:28:43;94211.91;;;15.79;52.19
59009;BME280;44794;42.652;23.318;2023-04-20T10:31:10;94216.09;;;15.47;52.34
59009;BME280;44794;42.652;23.318;2023-04-20T10:33:58;94193.91;;;15.76;52.75
59009;BME280;44794;42.652;23.318;2023-04-20T10:36:28;94202.41;;;15.95;52.64
59009;BME280;44794;42.652;23.318;2023-04-20T10:38:56;94214.13;;;15.91;51.82
59009;BME280;44794;42.652;23.318;2023-04-20T10:41:21;94196.31;;;15.70;52.80
59009;BME280;44794;42.652;23.318;2023-04-20T10:43:47;94197.63;;;15.48;53.51
59009;BME280;44794;42.652;23.318;2023-04-20T10:48:57;94203.19;;;15.71;52.48
59009;BME280;44794;42.652;23.318;2023-04-20T10:51:25;94193.53;;;15.46;54.14
59009;BME280;44794;42.652;23.318;2023-04-20T10:54:07;94198.16;;;15.52;53.50
59009;BME280;44794;42.652;23.318;2023-04-20T10:56:49;94193.91;;;15.33;53.99
59009;BME280;44794;42.652;23.318;2023-04-20T10:59:20;94186.47;;;15.46;54.08
59009;BME280;44794;42.652;23.318;2023-04-20T11:01:48;94186.44;;;15.64;54.34
59009;BME280;44794;42.652;23.318;2023-04-20T11:04:14;94192.47;;;15.39;52.72
59009;BME280;44794;42.652;23.318;2023-04-20T11:06:40;94188.13;;;14.51;54.56
59009;BME280;44794;42.652;23.318;2023-04-20T11:09:20;94184.69;;;14.24;55.22
59009;BME280;44794;42.652;23.318;2023-04-20T11:12:01;94175.94;;;14.15;57.04
59009;BME280;44794;42.652;23.318;2023-04-20T11:14:29;94179.25;;;14.17;57.43
59009;BME280;44794;42.652;23.318;2023-04-20T11:16:54;94185.03;;;14.82;56.45
59009;BME280;44794;42.652;23.318;2023-04-20T11:19:31;94183.34;;;15.43;54.18
59009;BME280;44794;42.652;23.318;2023-04-20T11:21:57;94186.88;;;15.77;52.52
59009;BME280;44794;42.652;23.318;2023-04-20T11:24:23;94189.00;;;15.56;52.79
59009;BME280;44794;42.652;23.318;2023-04-20T11:26:50;94180.25;;;15.65;52.32
59009;BME280;44794;42.652;23.318;2023-04-20T11:29:32;94182.13;;;15.80;52.51
59009;BME280;44794;42.652;23.318;2023-04-20T11:32:00;94189.38;;;15.86;50.70
59009;BME280;44794;42.652;23.318;2023-04-20T11:34:26;94187.78;;;16.18;50.87
59009;BME280;44794;42.652;23.318;2023-04-20T11:36:53;94184.28;;;16.35;48.31
59009;BME280;44794;42.652;23.318;2023-04-20T11:39:27;94180.78;;;16.60;48.79
59009;BME280;44794;42.652;23.318;2023-04-20T11:41:54;94176.81;;;17.13;47.62
59009;BME280;44794;42.652;23.318;2023-04-20T11:44:22;94175.06;;;17.45;47.43
59009;BME280;44794;42.652;23.318;2023-04-20T11:46:48;94180.34;;;17.69;46.68
59009;BME280;44794;42.652;23.318;2023-04-20T11:49:18;94174.06;;;17.78;47.21
59009;BME280;44794;42.652;23.318;2023-04-20T11:51:44;94176.19;;;17.83;46.26
59009;BME280;44794;42.652;23.318;2023-04-20T11:54:11;94178.69;;;17.36;47.38
59009;BME280;44794;42.652;23.318;2023-04-20T11:56:37;94167.22;;;17.61;47.08
59009;BME280;44794;42.652;23.318;2023-04-20T11:59:03;94170.78;;;17.92;45.46
59009;BME280;44794;42.652;23.318;2023-04-20T12:01:28;94177.84;;;17.68;44.67
59009;BME280;44794;42.652;23.318;2023-04-20T12:03:54;94161.78;;;17.47;46.22
59009;BME280;44794;42.652;23.318;2023-04-20T12:06:20;94176.31;;;17.02;45.84
59009;BME280;44794;42.652;23.318;2023-04-20T12:08:45;94157.81;;;17.03;47.20
59009;BME280;44794;42.652;23.318;2023-04-20T12:11:12;94171.41;;;17.07;46.46
59009;BME280;44794;42.652;23.318;2023-04-20T12:13:38;94176.09;;;16.30;46.78
59009;BME280;44794;42.652;23.318;2023-04-20T12:16:03;94163.38;;;15.42;49.70
59009;BME280;44794;42.652;23.318;2023-04-20T12:18:29;94157.94;;;15.35;50.24
59009;BME280;44794;42.652;23.318;2023-04-20T12:20:54;94160.44;;;14.58;53.29
59009;BME280;44794;42.652;23.318;2023-04-20T12:23:20;94157.34;;;14.18;55.77
59009;BME280;44794;42.652;23.318;2023-04-20T12:25:45;94148.09;;;13.97;58.65
59009;BME280;44794;42.652;23.318;2023-04-20T12:28:11;94145.25;;;13.35;62.01
59009;BME280;44794;42.652;23.318;2023-04-20T12:30:37;94136.53;;;12.89;65.14
59009;BME280;44794;42.652;23.318;2023-04-20T12:33:03;94143.06;;;12.65;68.11
59009;BME280;44794;42.652;23.318;2023-04-20T12:35:28;94142.91;;;12.75;70.77
59009;BME280;44794;42.652;23.318;2023-04-20T12:37:54;94140.91;;;12.98;70.39
59009;BME280;44794;42.652;23.318;2023-04-20T12:40:20;94138.28;;;13.17;68.98
59009;BME280;44794;42.652;23.318;2023-04-20T12:42:46;94130.94;;;13.48;68.29
59009;BME280;44794;42.652;23.318;2023-04-20T12:45:12;94141.84;;;13.80;66.07
59009;BME280;44794;42.652;23.318;2023-04-20T12:47:37;94147.63;;;14.11;63.66
59009;BME280;44794;42.652;23.318;2023-04-20T12:50:03;94141.56;;;14.20;61.64
59009;BME280;44794;42.652;23.318;2023-04-20T12:52:28;94135.03;;;14.50;60.70
59009;BME280;44794;42.652;23.318;2023-04-20T12:54:54;94142.81;;;14.77;58.80
59009;BME280;44794;42.652;23.318;2023-04-20T12:57:19;94133.28;;;15.38;57.21
59009;BME280;44794;42.652;23.318;2023-04-20T12:59:45;94139.03;;;15.67;54.38